createdAt,value
2022-10-22T00:01:00.202Z,93.50
2022-10-22T00:03:28.249Z,93.50
2022-10-22T00:05:56.258Z,93.50
2022-10-22T00:08:25.627Z,93.50
2022-10-22T00:10:53.849Z,93.60
2022-10-22T00:13:22.071Z,93.30
2022-10-22T00:15:50.110Z,93.30
2022-10-22T00:18:18.193Z,93.20
2022-10-22T00:20:46.144Z,93.30
2022-10-22T00:23:14.086Z,93.50
2022-10-22T00:25:43.371Z,93.40
2022-10-22T00:28:12.575Z,93.40
2022-10-22T00:30:40.607Z,93.40
2022-10-22T00:33:08.554Z,93.40
2022-10-22T00:35:36.511Z,93.30
2022-10-22T00:38:04.455Z,93.30
2022-10-22T00:40:32.715Z,93.40
2022-10-22T00:43:02.053Z,93.40
2022-10-22T00:45:30.804Z,93.60
2022-10-22T00:48:02.794Z,93.50
2022-10-22T00:50:35.331Z,93.70
2022-10-22T00:53:05.297Z,93.60
2022-10-22T00:55:34.795Z,93.70
2022-10-22T00:58:04.498Z,93.70
2022-10-22T01:00:32.926Z,93.60
2022-10-22T01:03:01.279Z,93.60
2022-10-22T01:05:30.591Z,93.60
2022-10-22T01:07:58.843Z,93.60
2022-10-22T01:10:40.095Z,93.40
2022-10-22T01:13:20.158Z,93.60
2022-10-22T01:15:57.770Z,93.40
2022-10-22T01:18:32.796Z,93.50
2022-10-22T01:21:09.678Z,93.60
2022-10-22T01:24:01.426Z,93.60
2022-10-22T01:26:40.908Z,93.50
2022-10-22T01:29:14.431Z,93.50
2022-10-22T01:31:48.251Z,93.50
2022-10-22T01:34:19.378Z,93.50
2022-10-22T01:36:49.229Z,93.70
2022-10-22T01:39:18.380Z,93.70
2022-10-22T01:41:47.083Z,93.60
2022-10-22T01:44:27.959Z,93.60
2022-10-22T01:47:05.631Z,93.70
2022-10-22T01:49:45.590Z,94.00
2022-10-22T01:52:26.047Z,93.60
2022-10-22T01:55:03.796Z,93.60
2022-10-22T01:57:43.251Z,93.60
2022-10-22T02:00:15.765Z,93.70
2022-10-22T02:02:51.930Z,93.70
2022-10-22T02:05:25.120Z,93.80
2022-10-22T02:07:56.450Z,93.80
2022-10-22T02:10:26.006Z,94.20
2022-10-22T02:12:56.972Z,93.60
2022-10-22T02:15:28.764Z,93.80
2022-10-22T02:17:59.591Z,93.80
2022-10-22T02:20:29.924Z,93.80
2022-10-22T02:22:58.503Z,93.70
2022-10-22T02:25:30.317Z,93.70
2022-10-22T02:28:05.486Z,93.70
2022-10-22T02:30:36.910Z,93.90
2022-10-22T02:33:11.917Z,94.00
2022-10-22T02:35:42.594Z,94.00
2022-10-22T02:38:11.971Z,94.00
2022-10-22T02:40:40.204Z,94.10
2022-10-22T02:43:08.434Z,94.20
2022-10-22T02:45:38.252Z,94.10
2022-10-22T02:48:06.934Z,94.30
2022-10-22T02:50:34.902Z,94.20
2022-10-22T02:53:02.848Z,94.20
2022-10-22T02:55:30.856Z,94.20
2022-10-22T02:57:58.772Z,94.30
2022-10-22T03:00:26.723Z,94.40
2022-10-22T03:02:56.059Z,94.40
2022-10-22T03:05:23.974Z,94.50
2022-10-22T03:07:51.908Z,94.50
2022-10-22T03:10:19.852Z,94.50
2022-10-22T03:12:48.313Z,94.70
2022-10-22T03:15:16.389Z,94.60
2022-10-22T03:17:44.357Z,94.80
2022-10-22T03:20:13.681Z,94.80
2022-10-22T03:22:43.462Z,94.70
2022-10-22T03:25:15.512Z,94.80
2022-10-22T03:27:44.021Z,94.90
2022-10-22T03:30:12.826Z,94.80
2022-10-22T03:32:40.922Z,94.80
2022-10-22T03:35:09.464Z,94.90
2022-10-22T03:37:39.900Z,94.90
2022-10-22T03:40:11.503Z,94.90
2022-10-22T03:42:39.657Z,94.80
2022-10-22T03:45:08.983Z,94.90
2022-10-22T03:47:37.960Z,95.00
2022-10-22T03:50:07.356Z,95.10
2022-10-22T03:52:39.452Z,95.10
2022-10-22T03:55:08.644Z,95.20
2022-10-22T03:57:36.751Z,95.30
2022-10-22T04:00:06.193Z,95.30
2022-10-22T04:02:34.171Z,95.70
2022-10-22T04:05:02.241Z,95.30
2022-10-22T04:07:30.270Z,95.30
2022-10-22T04:09:59.526Z,95.40
2022-10-22T04:12:27.583Z,95.20
2022-10-22T04:14:55.558Z,95.30
2022-10-22T04:17:23.596Z,95.30
2022-10-22T04:19:51.530Z,95.10
2022-10-22T04:22:19.446Z,95.00
2022-10-22T04:24:47.422Z,95.00
2022-10-22T04:27:16.744Z,95.10
2022-10-22T04:29:44.678Z,94.80
2022-10-22T04:32:12.638Z,94.70
2022-10-22T04:34:40.563Z,94.60
2022-10-22T04:37:08.494Z,94.60
2022-10-22T04:39:36.457Z,94.60
2022-10-22T04:42:04.838Z,94.60
2022-10-22T04:44:34.343Z,94.70
2022-10-22T04:47:02.260Z,94.70
2022-10-22T04:49:30.330Z,94.60
2022-10-22T04:51:58.267Z,94.80
2022-10-22T04:54:29.058Z,94.80
2022-10-22T04:57:00.235Z,94.90
2022-10-22T04:59:28.223Z,94.90
2022-10-22T05:01:57.502Z,94.90
2022-10-22T05:04:25.526Z,95.00
2022-10-22T05:06:53.567Z,95.00
2022-10-22T05:09:22.197Z,95.00
2022-10-22T05:11:52.537Z,95.10
2022-10-22T05:14:22.701Z,95.20
2022-10-22T05:16:51.019Z,95.10
2022-10-22T05:19:24.042Z,95.00
2022-10-22T05:21:52.222Z,94.90
2022-10-22T05:24:20.543Z,95.00
2022-10-22T05:26:50.810Z,94.90
2022-10-22T05:29:19.297Z,94.90
2022-10-22T05:31:47.524Z,95.00
2022-10-22T05:34:15.779Z,95.00
2022-10-22T05:36:45.439Z,95.00
2022-10-22T05:39:13.842Z,95.00
2022-10-22T05:41:41.828Z,95.10
2022-10-22T05:44:12.199Z,95.20
2022-10-22T05:46:40.244Z,95.20
2022-10-22T05:49:08.733Z,95.10
2022-10-22T05:51:38.264Z,95.10
2022-10-22T05:54:11.032Z,95.10
2022-10-22T05:56:39.889Z,95.20
2022-10-22T05:59:07.830Z,95.10
2022-10-22T06:01:36.383Z,95.40
2022-10-22T06:04:07.194Z,94.90
2022-10-22T06:06:40.014Z,94.90
2022-10-22T06:09:15.618Z,95.10
2022-10-22T06:11:43.698Z,94.80
2022-10-22T06:14:12.060Z,94.80
2022-10-22T06:16:40.645Z,94.80
2022-10-22T06:19:09.364Z,94.60
2022-10-22T06:21:37.310Z,94.40
2022-10-22T06:24:05.556Z,94.30
2022-10-22T06:26:34.888Z,94.20
2022-10-22T06:29:03.135Z,94.10
2022-10-22T06:31:36.602Z,93.90
2022-10-22T06:34:05.007Z,93.90
2022-10-22T06:36:32.997Z,93.80
2022-10-22T06:39:01.007Z,93.80
2022-10-22T06:41:29.765Z,93.70
2022-10-22T06:44:00.108Z,93.80
2022-10-22T06:46:28.309Z,93.80
2022-10-22T06:48:59.680Z,93.90
2022-10-22T06:51:28.709Z,93.70
2022-10-22T06:53:57.650Z,93.50
2022-10-22T06:56:28.455Z,93.30
2022-10-22T06:58:59.658Z,92.90
2022-10-22T07:01:30.162Z,92.60
2022-10-22T07:03:58.240Z,92.40
2022-10-22T07:06:27.533Z,92.10
2022-10-22T07:08:56.157Z,92.00
2022-10-22T07:11:26.496Z,91.70
2022-10-22T07:13:56.436Z,91.70
2022-10-22T07:16:29.648Z,91.50
2022-10-22T07:19:00.151Z,91.40
2022-10-22T07:21:28.461Z,91.30
2022-10-22T07:23:56.579Z,91.60
2022-10-22T07:26:27.144Z,90.90
2022-10-22T07:28:55.090Z,90.70
2022-10-22T07:31:23.031Z,90.80
2022-10-22T07:33:52.447Z,90.70
2022-10-22T07:36:20.521Z,90.90
2022-10-22T07:38:55.312Z,90.70
2022-10-22T07:41:23.697Z,90.90
2022-10-22T07:43:51.935Z,90.90
2022-10-22T07:46:20.292Z,91.00
2022-10-22T07:48:48.371Z,91.10
2022-10-22T07:51:18.308Z,91.00
2022-10-22T07:53:46.239Z,91.00
2022-10-22T07:56:14.347Z,90.90
2022-10-22T07:58:42.610Z,91.00
2022-10-22T08:01:10.602Z,90.80
2022-10-22T08:03:38.680Z,90.90
2022-10-22T08:06:07.280Z,90.80
2022-10-22T08:08:36.618Z,90.80
2022-10-22T08:11:04.637Z,90.50
2022-10-22T08:13:32.912Z,90.60
2022-10-22T08:16:01.846Z,90.60
2022-10-22T08:18:30.615Z,90.60
2022-10-22T08:20:59.306Z,90.40
2022-10-22T08:23:28.627Z,90.50
2022-10-22T08:25:59.617Z,90.60
2022-10-22T08:28:29.646Z,90.40
2022-10-22T08:30:57.679Z,90.40
2022-10-22T08:33:25.622Z,90.60
2022-10-22T08:35:54.191Z,90.30
2022-10-22T08:38:22.238Z,90.50
2022-10-22T08:40:52.701Z,90.40
2022-10-22T08:43:51.089Z,91.00
2022-10-22T08:46:29.493Z,90.70
2022-10-22T08:49:01.612Z,90.60
2022-10-22T08:51:32.752Z,90.80
2022-10-22T08:54:19.629Z,90.70
2022-10-22T08:56:54.333Z,90.90
2022-10-22T08:59:29.216Z,90.80
2022-10-22T09:01:57.206Z,91.00
2022-10-22T09:04:31.273Z,90.90
2022-10-22T09:07:00.860Z,90.70
2022-10-22T09:09:35.071Z,90.70
2022-10-22T09:12:05.042Z,90.60
2022-10-22T09:14:34.379Z,90.50
2022-10-22T09:17:15.072Z,90.30
2022-10-22T09:19:54.547Z,90.20
2022-10-22T09:22:30.798Z,90.30
2022-10-22T09:25:03.309Z,90.40
2022-10-22T09:27:32.733Z,90.40
2022-10-22T09:30:03.266Z,90.50
2022-10-22T09:32:32.437Z,90.30
2022-10-22T09:35:00.623Z,90.20
2022-10-22T09:37:30.963Z,90.40
2022-10-22T09:40:04.784Z,90.30
2022-10-22T09:42:34.929Z,90.30
2022-10-22T09:45:04.457Z,90.30
2022-10-22T09:47:43.354Z,90.30
2022-10-22T09:50:29.403Z,90.20
2022-10-22T09:53:01.603Z,90.10
2022-10-22T09:55:29.940Z,90.10
2022-10-22T09:58:00.825Z,90.40
2022-10-22T10:00:31.469Z,90.20
2022-10-22T10:03:01.003Z,90.50
2022-10-22T10:05:31.400Z,90.70
2022-10-22T10:08:01.774Z,90.60
2022-10-22T10:10:36.180Z,90.70
2022-10-22T10:13:14.408Z,90.80
2022-10-22T10:15:50.243Z,91.00
2022-10-22T10:18:31.941Z,91.10
2022-10-22T10:21:10.654Z,91.00
2022-10-22T10:23:47.901Z,91.10
2022-10-22T10:26:24.758Z,91.10
2022-10-22T10:29:14.296Z,91.40
2022-10-22T10:31:58.479Z,91.30
2022-10-22T10:34:37.379Z,91.40
2022-10-22T10:37:18.967Z,91.30
2022-10-22T10:40:11.299Z,91.60
2022-10-22T10:42:44.880Z,91.70
2022-10-22T10:45:19.729Z,91.80
2022-10-22T10:48:08.826Z,91.60
2022-10-22T10:50:44.396Z,91.90
2022-10-22T10:53:22.761Z,92.10
2022-10-22T10:56:00.664Z,92.10
2022-10-22T10:58:36.991Z,92.20
2022-10-22T11:01:15.367Z,92.30
2022-10-22T11:04:22.088Z,92.30
2022-10-22T11:06:51.552Z,92.30
2022-10-22T11:09:26.253Z,92.20
2022-10-22T11:11:58.956Z,92.20
2022-10-22T11:14:31.638Z,92.30
2022-10-22T11:17:06.197Z,92.30
2022-10-22T11:19:50.895Z,92.30
2022-10-22T11:22:27.238Z,92.40
2022-10-22T11:25:01.190Z,92.50
2022-10-22T11:27:37.094Z,93.00
2022-10-22T11:30:12.564Z,92.60
2022-10-22T11:32:42.604Z,92.70
2022-10-22T11:35:16.533Z,92.80
2022-10-22T11:37:46.716Z,92.90
2022-10-22T11:40:20.085Z,93.10
2022-10-22T11:42:51.779Z,93.50
2022-10-22T11:45:32.371Z,93.80
2022-10-22T11:48:07.307Z,94.10
2022-10-22T11:50:56.730Z,94.10
2022-10-22T11:53:32.266Z,94.20
2022-10-22T11:56:22.108Z,94.30
2022-10-22T11:58:53.729Z,94.50
2022-10-22T12:01:42.235Z,94.70
2022-10-22T12:04:22.561Z,95.30
2022-10-22T12:07:01.034Z,95.00
2022-10-22T12:09:32.407Z,95.10
2022-10-22T12:12:11.576Z,95.20
2022-10-22T12:14:53.305Z,95.30
2022-10-22T12:17:23.728Z,95.40
2022-10-22T12:19:58.528Z,95.30
2022-10-22T12:22:32.710Z,95.30
2022-10-22T12:25:03.173Z,95.60
2022-10-22T12:27:37.091Z,95.70
2022-10-22T12:30:19.223Z,96.10
2022-10-22T12:32:47.170Z,96.00
2022-10-22T12:35:19.827Z,95.80
2022-10-22T12:37:52.489Z,95.80
2022-10-22T12:40:22.733Z,96.00
2022-10-22T12:42:55.488Z,95.90
2022-10-22T12:45:26.927Z,96.30
2022-10-22T12:47:58.869Z,97.00
2022-10-22T12:50:33.934Z,97.40
2022-10-22T12:53:03.200Z,97.60
2022-10-22T12:55:34.798Z,97.60
2022-10-22T12:58:07.027Z,97.60
2022-10-22T13:00:37.300Z,97.50
2022-10-22T13:03:08.264Z,97.40
2022-10-22T13:05:39.784Z,97.20
2022-10-22T13:08:11.530Z,97.10
2022-10-22T13:10:41.220Z,97.20
2022-10-22T13:13:24.068Z,97.20
2022-10-22T13:15:52.007Z,97.10
2022-10-22T13:18:22.462Z,96.80
2022-10-22T13:20:55.140Z,97.00
2022-10-22T13:23:29.977Z,96.90
2022-10-22T13:26:00.354Z,96.90
2022-10-22T13:28:29.546Z,97.00
2022-10-22T13:30:59.887Z,97.20
2022-10-22T13:33:34.509Z,97.30
2022-10-22T13:36:02.826Z,97.60
2022-10-22T13:38:32.202Z,98.20
2022-10-22T13:41:00.688Z,98.90
2022-10-22T13:43:28.638Z,99.30
2022-10-22T13:45:59.999Z,99.90
2022-10-22T13:48:30.840Z,99.90
2022-10-22T13:50:59.008Z,99.90
2022-10-22T13:53:29.515Z,99.90
2022-10-22T13:55:58.842Z,99.90
2022-10-22T13:58:26.815Z,99.90
2022-10-22T14:00:57.089Z,99.90
2022-10-22T14:03:28.162Z,99.90
2022-10-22T14:05:56.290Z,99.90
2022-10-22T14:08:26.513Z,99.90
2022-10-22T14:10:54.687Z,99.90
2022-10-22T14:13:24.022Z,99.90
2022-10-22T14:15:53.274Z,99.90
2022-10-22T14:18:25.598Z,99.90
2022-10-22T14:20:56.022Z,99.90
2022-10-22T14:23:26.542Z,99.90
2022-10-22T14:25:54.967Z,99.90
2022-10-22T14:28:24.300Z,99.90
2022-10-22T14:30:53.054Z,99.90
2022-10-22T14:33:27.214Z,99.90
2022-10-22T14:36:00.176Z,99.90
2022-10-22T14:38:28.190Z,99.90
2022-10-22T14:40:56.547Z,99.90
2022-10-22T14:43:27.568Z,99.90
2022-10-22T14:45:56.076Z,99.90
2022-10-22T14:48:24.258Z,99.90
2022-10-22T14:50:52.255Z,99.90
2022-10-22T14:53:20.234Z,99.90
2022-10-22T14:55:49.225Z,99.90
2022-10-22T14:58:17.314Z,99.90
2022-10-22T15:00:46.690Z,99.90
2022-10-22T15:03:14.705Z,99.90
2022-10-22T15:05:44.367Z,99.90
2022-10-22T15:08:13.318Z,99.90
2022-10-22T15:10:41.621Z,99.90
2022-10-22T15:13:09.813Z,99.90
2022-10-22T15:15:39.749Z,99.90
2022-10-22T15:18:09.375Z,99.90
2022-10-22T15:20:37.334Z,99.90
2022-10-22T15:23:05.294Z,99.90
2022-10-22T15:25:33.535Z,99.90
2022-10-22T15:28:09.058Z,99.90
2022-10-22T15:30:38.051Z,99.90
2022-10-22T15:33:06.730Z,99.90
2022-10-22T15:35:36.019Z,99.90
2022-10-22T15:38:06.571Z,99.90
2022-10-22T15:40:34.549Z,99.90
2022-10-22T15:43:02.524Z,99.90
2022-10-22T15:45:30.450Z,99.90
2022-10-22T15:47:58.763Z,99.90
2022-10-22T15:50:26.749Z,99.90
2022-10-22T15:52:56.023Z,99.90
2022-10-22T15:55:23.934Z,99.90
2022-10-22T15:57:58.021Z,99.90
2022-10-22T16:00:28.694Z,99.90
2022-10-22T16:02:56.660Z,99.90
2022-10-22T16:05:24.935Z,99.90
2022-10-22T16:07:55.744Z,99.90
2022-10-22T16:10:25.473Z,99.90
2022-10-22T16:12:54.633Z,99.90
2022-10-22T16:15:22.628Z,99.90
2022-10-22T16:17:52.497Z,99.90
2022-10-22T16:20:20.460Z,99.90
2022-10-22T16:22:50.935Z,99.90
2022-10-22T16:25:18.917Z,99.90
2022-10-22T16:27:51.757Z,99.90
2022-10-22T16:30:19.696Z,99.90
2022-10-22T16:32:47.638Z,99.90
2022-10-22T16:35:15.697Z,99.90
2022-10-22T16:37:44.332Z,99.90
2022-10-22T16:40:13.602Z,99.90
2022-10-22T16:42:42.050Z,99.90
2022-10-22T16:45:11.800Z,99.90
2022-10-22T16:47:40.310Z,99.90
2022-10-22T16:50:09.656Z,99.90
2022-10-22T16:52:37.696Z,99.90
2022-10-22T16:55:06.234Z,99.90
2022-10-22T16:57:35.885Z,99.90
2022-10-22T17:00:04.828Z,99.90
2022-10-22T17:02:35.258Z,99.90
2022-10-22T17:05:03.208Z,99.90
2022-10-22T17:07:31.130Z,99.90
2022-10-22T17:09:59.057Z,99.90
2022-10-22T17:12:26.973Z,99.90
2022-10-22T17:14:54.931Z,99.90
2022-10-22T17:17:22.874Z,99.90
2022-10-22T17:19:52.170Z,99.90
2022-10-22T17:22:20.154Z,99.90
2022-10-22T17:24:48.092Z,99.90
2022-10-22T17:27:16.064Z,99.90
2022-10-22T17:29:43.982Z,99.90
2022-10-22T17:32:11.931Z,99.90
2022-10-22T17:34:40.448Z,99.90
2022-10-22T17:37:09.720Z,99.90
2022-10-22T17:39:37.686Z,99.90
2022-10-22T17:42:06.258Z,99.90
2022-10-22T17:44:34.172Z,99.90
2022-10-22T17:47:02.093Z,99.90
2022-10-22T17:49:30.008Z,99.90
2022-10-22T17:51:58.028Z,99.90
2022-10-22T17:54:27.302Z,99.90
2022-10-22T17:56:55.230Z,99.90
2022-10-22T17:59:23.162Z,99.90
2022-10-22T18:01:51.128Z,99.90
2022-10-22T18:04:22.035Z,99.90
2022-10-22T18:06:50.430Z,99.90
2022-10-22T18:09:19.708Z,99.90
2022-10-22T18:11:50.325Z,99.90
2022-10-22T18:14:19.116Z,99.90
2022-10-22T18:16:47.525Z,99.90
2022-10-22T18:19:17.552Z,99.90
2022-10-22T18:21:45.587Z,99.90
2022-10-22T18:24:15.584Z,99.90
2022-10-22T18:26:43.769Z,99.90
2022-10-22T18:29:17.146Z,99.90
2022-10-22T18:31:45.343Z,99.90
2022-10-22T18:34:13.722Z,99.90
2022-10-22T18:36:42.326Z,99.90
2022-10-22T18:39:13.387Z,99.90
2022-10-22T18:41:41.338Z,99.90
2022-10-22T18:44:09.511Z,99.90
2022-10-22T18:46:39.682Z,99.90
2022-10-22T18:49:08.373Z,99.90
2022-10-22T18:51:36.872Z,99.90
2022-10-22T18:54:21.392Z,99.90
2022-10-22T18:56:49.975Z,99.90
2022-10-22T18:59:20.898Z,99.90
2022-10-22T19:01:51.324Z,99.90
2022-10-22T19:04:19.398Z,99.90
2022-10-22T19:06:47.428Z,99.90
2022-10-22T19:09:16.083Z,99.90
2022-10-22T19:11:44.858Z,99.90
2022-10-22T19:14:14.708Z,99.90
2022-10-22T19:16:42.808Z,99.90
2022-10-22T19:19:16.369Z,99.90
2022-10-22T19:21:44.355Z,99.90
2022-10-22T19:24:13.091Z,99.90
2022-10-22T19:26:41.636Z,99.90
2022-10-22T19:29:10.943Z,99.90
2022-10-22T19:31:40.851Z,99.90
2022-10-22T19:34:08.797Z,99.90
2022-10-22T19:36:38.119Z,99.90
2022-10-22T19:39:07.696Z,99.90
2022-10-22T19:41:36.216Z,99.90
2022-10-22T19:44:04.251Z,99.90
2022-10-22T19:46:32.714Z,99.90
2022-10-22T19:49:02.604Z,99.90
2022-10-22T19:51:31.917Z,99.90
2022-10-22T19:54:03.233Z,99.90
2022-10-22T19:56:32.384Z,99.90
2022-10-22T19:59:00.620Z,99.90
2022-10-22T20:01:29.002Z,99.90
2022-10-22T20:03:57.088Z,99.90
2022-10-22T20:06:25.149Z,99.90
2022-10-22T20:08:55.964Z,99.90
2022-10-22T20:11:28.225Z,99.90
2022-10-22T20:13:56.667Z,99.90
2022-10-22T20:16:28.567Z,99.90
2022-10-22T20:19:00.047Z,99.90
2022-10-22T20:21:28.327Z,99.90
2022-10-22T20:23:57.484Z,99.90
2022-10-22T20:26:28.877Z,99.90
2022-10-22T20:28:57.511Z,99.90
2022-10-22T20:31:28.402Z,99.90
2022-10-22T20:33:57.800Z,99.90
2022-10-22T20:36:27.240Z,99.90
2022-10-22T20:39:00.740Z,99.90
2022-10-22T20:41:30.392Z,99.90
2022-10-22T20:43:58.329Z,99.90
2022-10-22T20:46:29.178Z,99.90
2022-10-22T20:49:00.317Z,99.90
2022-10-22T20:51:28.496Z,99.90
2022-10-22T20:53:56.490Z,99.90
2022-10-22T20:56:24.754Z,99.90
2022-10-22T20:59:04.098Z,99.90
2022-10-22T21:01:34.050Z,99.90
2022-10-22T21:04:01.978Z,99.90
2022-10-22T21:06:30.789Z,99.90
2022-10-22T21:08:58.843Z,99.90
2022-10-22T21:11:26.927Z,99.90
2022-10-22T21:13:56.255Z,99.90
2022-10-22T21:16:24.251Z,99.90
2022-10-22T21:18:52.571Z,99.90
2022-10-22T21:21:20.560Z,99.90
2022-10-22T21:23:50.187Z,99.90
2022-10-22T21:26:18.965Z,99.90
2022-10-22T21:28:47.165Z,99.90
2022-10-22T21:31:21.861Z,99.90
2022-10-22T21:33:50.800Z,99.90
2022-10-22T21:36:22.746Z,99.90
2022-10-22T21:38:51.887Z,99.90
2022-10-22T21:41:22.272Z,99.90
2022-10-22T21:43:50.993Z,99.90
2022-10-22T21:46:22.492Z,99.90
2022-10-22T21:48:54.744Z,99.90
2022-10-22T21:51:24.147Z,99.90
2022-10-22T21:56:27.311Z,99.90
2022-10-22T21:58:55.721Z,99.90
2022-10-22T22:01:25.569Z,99.90
2022-10-22T22:03:53.859Z,99.90
2022-10-22T22:06:24.181Z,99.90
2022-10-22T22:08:53.969Z,99.90
2022-10-22T22:11:24.012Z,99.90
2022-10-22T22:13:52.648Z,99.90
2022-10-22T22:16:28.116Z,99.90
2022-10-22T22:18:57.277Z,99.90
2022-10-22T22:21:25.308Z,99.90
2022-10-22T22:23:53.354Z,99.90
2022-10-22T22:26:26.704Z,99.90
2022-10-22T22:28:58.108Z,99.90
2022-10-22T22:31:29.627Z,99.90
2022-10-22T22:34:01.732Z,99.90
2022-10-22T22:36:33.136Z,99.90
2022-10-22T22:39:01.227Z,99.90
2022-10-22T22:41:29.167Z,99.90
2022-10-22T22:43:57.146Z,99.90
2022-10-22T22:46:25.204Z,99.90
2022-10-22T22:48:54.493Z,99.90
2022-10-22T22:51:22.699Z,99.90
2022-10-22T22:53:50.702Z,99.90
2022-10-22T22:56:21.323Z,99.90
2022-10-22T22:58:49.864Z,99.90
2022-10-22T23:01:19.526Z,99.90
2022-10-22T23:03:49.402Z,99.90
2022-10-22T23:06:18.719Z,99.90
2022-10-22T23:08:50.160Z,99.90
2022-10-22T23:11:18.205Z,99.90
2022-10-22T23:13:46.251Z,99.90
2022-10-22T23:16:16.056Z,99.90
2022-10-22T23:18:44.722Z,99.90
2022-10-22T23:21:15.406Z,99.90
2022-10-22T23:23:48.834Z,99.90
2022-10-22T23:26:19.397Z,99.90
2022-10-22T23:28:47.530Z,99.90
2022-10-22T23:31:16.438Z,99.90
2022-10-22T23:33:45.088Z,99.90
2022-10-22T23:36:13.778Z,99.90
2022-10-22T23:38:42.213Z,99.90
2022-10-22T23:41:11.942Z,99.90
2022-10-22T23:43:39.956Z,99.90
2022-10-22T23:46:10.273Z,99.90
2022-10-22T23:48:39.070Z,99.90
2022-10-22T23:51:08.636Z,99.90
2022-10-22T23:53:36.671Z,99.90
2022-10-22T23:56:06.198Z,99.90
2022-10-22T23:58:36.422Z,99.90
